createdAt,value
2022-12-05T00:01:17.747Z,34.88
2022-12-05T00:03:46.013Z,35.50
2022-12-05T00:06:13.798Z,36.08
2022-12-05T00:08:41.495Z,37.40
2022-12-05T00:11:13.555Z,36.00
2022-12-05T00:13:41.408Z,36.42
2022-12-05T00:16:12.032Z,35.97
2022-12-05T00:18:40.231Z,37.07
2022-12-05T00:21:08.698Z,37.05
2022-12-05T00:23:36.390Z,36.13
2022-12-05T00:26:04.814Z,35.85
2022-12-05T00:28:33.064Z,35.40
2022-12-05T00:31:03.510Z,36.75
2022-12-05T00:33:32.958Z,36.65
2022-12-05T00:36:03.225Z,34.97
2022-12-05T00:38:30.887Z,35.38
2022-12-05T00:41:03.886Z,36.17
2022-12-05T00:43:31.500Z,34.35
2022-12-05T00:46:02.522Z,34.20
2022-12-05T00:48:30.247Z,35.70
2022-12-05T00:51:03.466Z,34.47
2022-12-05T00:53:31.181Z,33.60
2022-12-05T00:56:03.074Z,33.30
2022-12-05T00:58:30.754Z,33.72
2022-12-05T01:00:58.839Z,33.67
2022-12-05T01:03:26.559Z,34.25
2022-12-05T01:05:54.156Z,34.30
2022-12-05T01:08:23.515Z,32.20
2022-12-05T01:10:54.976Z,33.83
2022-12-05T01:13:23.341Z,33.70
2022-12-05T01:15:51.335Z,35.65
2022-12-05T01:18:19.409Z,35.78
2022-12-05T01:20:49.514Z,35.60
2022-12-05T01:23:17.613Z,36.00
2022-12-05T01:25:47.995Z,35.45
2022-12-05T01:28:16.413Z,34.20
2022-12-05T01:30:45.448Z,36.05
2022-12-05T01:33:13.629Z,36.05
2022-12-05T01:35:43.129Z,36.25
2022-12-05T01:38:11.735Z,35.88
2022-12-05T01:40:40.027Z,36.72
2022-12-05T01:43:12.735Z,35.60
2022-12-05T01:45:42.513Z,36.63
2022-12-05T01:48:12.807Z,37.75
2022-12-05T01:50:40.583Z,38.03
2022-12-05T01:53:08.433Z,37.30
2022-12-05T01:55:37.152Z,36.53
2022-12-05T01:58:06.698Z,36.53
2022-12-05T02:00:35.738Z,36.22
2022-12-05T02:03:07.502Z,37.15
2022-12-05T02:05:36.956Z,37.10
2022-12-05T02:08:07.324Z,36.90
2022-12-05T02:10:36.330Z,37.55
2022-12-05T02:13:12.024Z,36.15
2022-12-05T02:15:44.114Z,36.30
2022-12-05T02:18:28.851Z,37.65
2022-12-05T02:21:08.212Z,36.00
2022-12-05T02:23:50.011Z,37.38
2022-12-05T02:26:55.855Z,38.25
2022-12-05T02:29:43.724Z,38.50
2022-12-05T02:32:13.807Z,38.83
2022-12-05T02:34:48.342Z,38.13
2022-12-05T02:37:18.920Z,40.03
2022-12-05T02:39:49.952Z,38.47
2022-12-05T02:42:22.787Z,38.50
2022-12-05T02:44:53.854Z,39.45
2022-12-05T02:47:24.989Z,38.70
2022-12-05T02:49:53.860Z,38.03
2022-12-05T02:52:22.381Z,37.50
2022-12-05T02:54:51.520Z,38.13
2022-12-05T02:57:19.897Z,38.10
2022-12-05T02:59:47.562Z,37.37
2022-12-05T03:02:26.389Z,38.05
2022-12-05T03:04:54.173Z,36.28
2022-12-05T03:07:23.472Z,36.65
2022-12-05T03:09:54.299Z,34.63
2022-12-05T03:12:24.626Z,35.60
2022-12-05T03:14:57.476Z,35.67
2022-12-05T03:17:30.601Z,33.55
2022-12-05T03:19:59.807Z,35.17
2022-12-05T03:22:32.113Z,34.08
2022-12-05T03:24:59.950Z,35.35
2022-12-05T03:27:30.451Z,35.15
2022-12-05T03:30:02.106Z,34.13
2022-12-05T03:32:36.386Z,34.95
2022-12-05T03:35:07.236Z,35.00
2022-12-05T03:37:43.528Z,35.65
2022-12-05T03:40:19.190Z,35.57
2022-12-05T03:42:52.161Z,35.00
2022-12-05T03:45:25.955Z,36.60
2022-12-05T03:48:00.644Z,36.55
2022-12-05T03:50:30.015Z,37.33
2022-12-05T03:55:52.269Z,35.40
2022-12-05T03:58:23.845Z,36.15
2022-12-05T04:00:52.333Z,36.77
2022-12-05T04:03:24.339Z,36.63
2022-12-05T04:05:54.346Z,38.25
2022-12-05T04:08:24.967Z,37.45
2022-12-05T04:10:55.102Z,37.80
2022-12-05T04:13:26.054Z,36.97
2022-12-05T04:16:15.269Z,38.67
2022-12-05T04:18:49.040Z,36.88
2022-12-05T04:21:35.124Z,37.22
2022-12-05T04:24:20.339Z,39.40
2022-12-05T04:26:55.048Z,39.30
2022-12-05T04:29:27.527Z,38.25
2022-12-05T04:32:00.602Z,37.88
2022-12-05T04:34:30.380Z,38.25
2022-12-05T04:37:01.881Z,37.13
2022-12-05T04:39:34.973Z,37.72
2022-12-05T04:42:05.514Z,38.10
2022-12-05T04:44:35.910Z,38.63
2022-12-05T04:47:05.404Z,36.70
2022-12-05T04:49:34.475Z,36.97
2022-12-05T04:52:05.334Z,36.95
2022-12-05T04:54:35.955Z,36.08
2022-12-05T04:57:08.206Z,37.83
2022-12-05T04:59:36.192Z,36.70
2022-12-05T05:02:07.637Z,38.03
2022-12-05T05:04:38.612Z,36.85
2022-12-05T05:07:08.019Z,36.00
2022-12-05T05:09:36.437Z,36.13
2022-12-05T05:12:04.725Z,35.60
2022-12-05T05:14:33.629Z,34.35
2022-12-05T05:17:01.376Z,35.45
2022-12-05T05:19:29.086Z,35.80
2022-12-05T05:21:58.176Z,35.17
2022-12-05T05:24:26.332Z,36.10
2022-12-05T05:26:57.262Z,35.97
2022-12-05T05:29:25.413Z,34.72
2022-12-05T05:31:53.075Z,35.92
2022-12-05T05:34:20.792Z,35.95
2022-12-05T05:36:52.571Z,35.58
2022-12-05T05:39:21.594Z,33.75
2022-12-05T05:41:49.193Z,33.78
2022-12-05T05:44:16.864Z,33.92
2022-12-05T05:46:44.624Z,33.70
2022-12-05T05:49:12.605Z,33.53
2022-12-05T05:51:40.271Z,33.85
2022-12-05T05:54:07.950Z,33.58
2022-12-05T05:56:36.948Z,32.50
2022-12-05T05:59:04.883Z,33.50
2022-12-05T06:01:32.763Z,32.97
2022-12-05T06:04:00.694Z,33.78
2022-12-05T06:06:29.184Z,32.80
2022-12-05T06:08:56.986Z,32.83
2022-12-05T06:11:26.903Z,32.20
2022-12-05T06:13:56.620Z,33.03
2022-12-05T06:16:24.580Z,32.10
2022-12-05T06:18:53.104Z,32.85
2022-12-05T06:21:21.179Z,32.08
2022-12-05T06:23:49.223Z,31.88
2022-12-05T06:26:18.701Z,32.72
2022-12-05T06:28:48.006Z,32.83
2022-12-05T06:31:19.295Z,30.60
2022-12-05T06:33:47.513Z,32.70
2022-12-05T06:36:16.951Z,33.17
2022-12-05T06:38:44.661Z,31.73
2022-12-05T06:41:14.651Z,33.28
2022-12-05T06:43:42.440Z,32.20
2022-12-05T06:46:12.258Z,33.40
2022-12-05T06:48:41.358Z,31.98
2022-12-05T06:51:10.239Z,32.67
2022-12-05T06:53:38.014Z,32.65
2022-12-05T06:56:08.161Z,32.10
2022-12-05T06:58:35.887Z,31.83
2022-12-05T07:01:21.473Z,31.13
2022-12-05T07:03:51.082Z,31.55
2022-12-05T07:06:18.745Z,31.45
2022-12-05T07:08:47.408Z,31.05
2022-12-05T07:11:15.082Z,28.30
2022-12-05T07:13:42.758Z,32.38
2022-12-05T07:16:10.660Z,32.33
2022-12-05T07:18:38.592Z,31.85
2022-12-05T07:21:12.055Z,30.60
2022-12-05T07:23:40.470Z,31.60
2022-12-05T07:26:09.115Z,31.50
2022-12-05T07:28:36.875Z,32.53
2022-12-05T07:31:07.005Z,31.45
2022-12-05T07:33:35.098Z,31.17
2022-12-05T07:36:03.782Z,31.80
2022-12-05T07:38:32.925Z,32.63
2022-12-05T07:41:00.852Z,32.47
2022-12-05T07:43:28.560Z,33.00
2022-12-05T07:45:56.194Z,34.13
2022-12-05T07:48:23.827Z,34.80
2022-12-05T07:50:51.440Z,36.00
2022-12-05T07:53:19.095Z,36.30
2022-12-05T07:55:48.153Z,35.22
2022-12-05T07:58:15.759Z,38.15
2022-12-05T08:00:43.596Z,39.13
2022-12-05T08:03:11.260Z,39.17
2022-12-05T08:05:38.982Z,40.50
2022-12-05T08:08:07.103Z,40.83
2022-12-05T08:10:35.532Z,39.13
2022-12-05T08:13:04.643Z,40.13
2022-12-05T08:15:32.333Z,41.08
2022-12-05T08:17:59.976Z,41.00
2022-12-05T08:20:27.619Z,39.97
2022-12-05T08:22:55.408Z,40.78
2022-12-05T08:25:23.052Z,40.22
2022-12-05T08:27:50.680Z,39.55
2022-12-05T08:30:19.877Z,41.63
2022-12-05T08:32:47.583Z,40.05
2022-12-05T08:35:16.476Z,42.75
2022-12-05T08:37:44.146Z,40.00
2022-12-05T08:40:12.927Z,37.33
2022-12-05T08:42:41.097Z,38.83
2022-12-05T08:45:09.739Z,38.30
2022-12-05T08:47:38.886Z,37.58
2022-12-05T08:50:07.942Z,38.75
2022-12-05T08:52:35.603Z,36.80
2022-12-05T08:55:03.251Z,37.75
2022-12-05T08:57:30.896Z,36.17
2022-12-05T08:59:58.689Z,36.35
2022-12-05T09:02:26.372Z,36.65
2022-12-05T09:04:57.356Z,36.45
2022-12-05T09:07:29.496Z,35.65
2022-12-05T09:09:57.200Z,35.63
2022-12-05T09:12:24.832Z,32.75
2022-12-05T09:14:52.591Z,34.03
2022-12-05T09:17:20.192Z,35.75
2022-12-05T09:19:47.848Z,34.22
2022-12-05T09:22:17.267Z,33.78
2022-12-05T09:24:44.905Z,34.47
2022-12-05T09:27:12.509Z,35.60
2022-12-05T09:29:40.366Z,34.13
2022-12-05T09:32:08.099Z,33.95
2022-12-05T09:34:36.018Z,33.60
2022-12-05T09:37:23.128Z,34.97
2022-12-05T09:39:54.098Z,34.63
2022-12-05T09:42:31.421Z,35.03
2022-12-05T09:45:19.876Z,33.88
2022-12-05T09:47:52.639Z,34.40
2022-12-05T09:50:22.736Z,33.47
2022-12-05T09:52:59.876Z,33.33
2022-12-05T09:55:32.176Z,34.10
2022-12-05T09:58:01.719Z,33.80
2022-12-05T10:00:30.848Z,34.75
2022-12-05T10:03:06.903Z,33.83
2022-12-05T10:05:40.077Z,33.08
2022-12-05T10:08:21.106Z,32.50
2022-12-05T10:10:58.535Z,34.05
2022-12-05T10:13:40.662Z,33.13
2022-12-05T10:16:12.619Z,33.97
2022-12-05T10:18:42.135Z,32.78
2022-12-05T10:21:14.421Z,33.40
2022-12-05T10:23:57.468Z,32.75
2022-12-05T10:26:29.749Z,33.90
2022-12-05T10:29:02.162Z,31.75
2022-12-05T10:31:32.467Z,32.20
2022-12-05T10:34:06.787Z,31.65
2022-12-05T10:36:35.214Z,32.00
2022-12-05T10:39:06.934Z,32.00
2022-12-05T10:41:39.406Z,31.75
2022-12-05T10:44:07.155Z,29.88
2022-12-05T10:46:34.939Z,31.85
2022-12-05T10:49:02.655Z,30.75
2022-12-05T10:51:37.024Z,28.42
2022-12-05T10:54:16.303Z,29.85
2022-12-05T10:56:47.030Z,32.63
2022-12-05T10:59:16.284Z,29.90
2022-12-05T11:01:48.472Z,28.90
2022-12-05T11:04:25.621Z,27.60
2022-12-05T11:06:56.916Z,27.27
2022-12-05T11:09:26.512Z,27.95
2022-12-05T11:12:18.960Z,27.90
2022-12-05T11:15:00.670Z,28.10
2022-12-05T11:17:32.648Z,29.75
2022-12-05T11:20:00.300Z,26.27
2022-12-05T11:22:35.749Z,25.65
2022-12-05T11:25:30.129Z,27.40
2022-12-05T11:28:01.454Z,27.15
2022-12-05T11:30:30.601Z,26.35
2022-12-05T11:33:13.544Z,25.50
2022-12-05T11:35:41.801Z,26.67
2022-12-05T11:38:12.733Z,26.30
2022-12-05T11:40:48.358Z,26.67
2022-12-05T11:43:36.752Z,26.50
2022-12-05T11:46:11.920Z,26.52
2022-12-05T11:48:51.536Z,26.10
2022-12-05T11:51:29.237Z,26.30
2022-12-05T11:54:25.944Z,25.75
2022-12-05T11:57:07.591Z,26.05
2022-12-05T12:00:03.442Z,24.98
2022-12-05T12:05:03.109Z,24.60
2022-12-05T12:07:48.439Z,24.30
2022-12-05T12:10:23.179Z,24.65
2022-12-05T12:12:58.855Z,24.15
2022-12-05T12:15:40.569Z,28.30
2022-12-05T12:18:15.210Z,27.23
2022-12-05T12:20:56.785Z,28.17
2022-12-05T12:23:36.042Z,23.50
2022-12-05T12:26:11.045Z,24.65
2022-12-05T12:28:46.835Z,24.08
2022-12-05T12:31:31.599Z,23.30
2022-12-05T12:34:07.569Z,24.50
2022-12-05T12:36:39.065Z,24.83
2022-12-05T12:39:20.312Z,24.73
2022-12-05T12:42:02.597Z,24.42
2022-12-05T12:44:55.582Z,24.83
2022-12-05T12:47:32.332Z,23.63
2022-12-05T12:50:04.793Z,25.20
2022-12-05T12:53:01.873Z,24.57
2022-12-05T12:55:34.965Z,20.87
2022-12-05T12:58:11.610Z,22.37
2022-12-05T13:00:47.951Z,23.20
2022-12-05T13:03:19.137Z,23.77
2022-12-05T13:05:49.102Z,26.23
2022-12-05T13:08:24.737Z,25.88
2022-12-05T13:10:52.574Z,25.27
2022-12-05T13:13:22.504Z,22.02
2022-12-05T13:15:52.477Z,20.02
2022-12-05T13:18:22.003Z,23.60
2022-12-05T13:20:52.145Z,26.30
2022-12-05T13:23:23.869Z,23.63
2022-12-05T13:25:52.890Z,25.15
2022-12-05T13:28:29.029Z,23.97
2022-12-05T13:31:01.731Z,23.63
2022-12-05T13:33:33.040Z,22.60
2022-12-05T13:36:24.706Z,23.97
2022-12-05T13:39:16.924Z,15.00
2022-12-05T13:42:04.530Z,11.27
2022-12-05T13:44:36.304Z,8.38
2022-12-05T13:47:07.217Z,7.40
2022-12-05T13:49:43.922Z,6.65
2022-12-05T13:52:15.798Z,6.80
2022-12-05T13:54:47.218Z,6.72
2022-12-05T13:57:47.917Z,6.78
2022-12-05T14:00:26.197Z,7.07
2022-12-05T14:03:03.294Z,6.25
2022-12-05T14:05:40.056Z,6.80
2022-12-05T14:08:47.439Z,6.93
2022-12-05T14:11:16.640Z,6.88
2022-12-05T14:13:45.640Z,6.72
2022-12-05T14:16:44.403Z,6.80
2022-12-05T14:20:05.047Z,6.45
2022-12-05T14:23:02.531Z,6.38
2022-12-05T14:25:46.545Z,6.00
2022-12-05T14:28:37.521Z,6.25
2022-12-05T14:31:20.349Z,6.00
2022-12-05T14:34:10.061Z,6.40
2022-12-05T14:36:39.406Z,6.60
2022-12-05T14:39:21.855Z,6.07
2022-12-05T14:41:57.444Z,6.20
2022-12-05T14:44:32.059Z,6.80
2022-12-05T14:47:03.160Z,6.35
2022-12-05T14:49:52.119Z,6.60
2022-12-05T14:52:23.060Z,7.20
2022-12-05T14:54:52.405Z,6.20
2022-12-05T14:57:20.767Z,6.97
2022-12-05T14:59:52.500Z,6.63
2022-12-05T15:02:24.328Z,6.60
2022-12-05T15:04:54.936Z,6.63
2022-12-05T15:07:27.787Z,8.80
2022-12-05T15:09:57.787Z,8.75
2022-12-05T15:12:28.833Z,11.77
2022-12-05T15:15:04.724Z,9.93
2022-12-05T15:17:38.362Z,8.95
2022-12-05T15:20:09.613Z,7.90
2022-12-05T15:22:38.770Z,7.63
2022-12-05T15:25:26.636Z,7.47
2022-12-05T15:27:56.204Z,8.43
2022-12-05T15:30:25.973Z,8.30
2022-12-05T15:32:59.252Z,7.80
2022-12-05T15:35:28.590Z,8.48
2022-12-05T15:37:58.282Z,7.40
2022-12-05T15:40:27.077Z,8.45
2022-12-05T15:42:56.381Z,8.47
2022-12-05T15:45:27.684Z,8.80
2022-12-05T15:47:57.174Z,9.43
2022-12-05T15:50:31.405Z,9.23
2022-12-05T15:53:01.750Z,8.43
2022-12-05T15:55:32.359Z,8.90
2022-12-05T15:58:09.598Z,8.40
2022-12-05T16:00:44.691Z,8.18
2022-12-05T16:03:15.905Z,8.60
2022-12-05T16:05:49.130Z,8.60
2022-12-05T16:08:17.301Z,9.85
2022-12-05T16:10:45.103Z,10.13
2022-12-05T16:13:15.658Z,9.27
2022-12-05T16:15:52.491Z,9.73
2022-12-05T16:18:27.563Z,10.97
2022-12-05T16:22:11.240Z,10.90
2022-12-05T16:24:41.787Z,9.63
2022-12-05T16:27:15.919Z,10.23
2022-12-05T16:29:43.841Z,9.68
2022-12-05T16:32:19.922Z,9.02
2022-12-05T16:34:47.719Z,8.63
2022-12-05T16:37:28.110Z,10.45
2022-12-05T16:39:56.063Z,10.20
2022-12-05T16:42:25.667Z,10.55
2022-12-05T16:45:03.528Z,11.90
2022-12-05T16:47:57.132Z,10.77
2022-12-05T16:50:30.293Z,10.13
2022-12-05T16:53:16.610Z,10.57
2022-12-05T16:55:45.889Z,11.25
2022-12-05T16:58:26.400Z,11.63
2022-12-05T17:01:00.631Z,10.02
2022-12-05T17:03:36.255Z,9.18
2022-12-05T17:06:04.468Z,11.47
2022-12-05T17:08:33.541Z,9.40
2022-12-05T17:11:03.628Z,9.80
2022-12-05T17:13:32.071Z,9.33
2022-12-05T17:15:59.828Z,10.05
2022-12-05T17:18:31.423Z,9.53
2022-12-05T17:21:01.623Z,9.32
2022-12-05T17:23:29.316Z,9.38
2022-12-05T17:25:59.586Z,9.15
2022-12-05T17:28:27.370Z,10.60
2022-12-05T17:30:55.005Z,8.70
2022-12-05T17:33:22.647Z,9.60
2022-12-05T17:35:51.988Z,9.77
2022-12-05T17:38:19.584Z,9.65
2022-12-05T17:40:47.883Z,10.07
2022-12-05T17:43:23.107Z,10.85
2022-12-05T17:45:54.047Z,10.95
2022-12-05T17:48:22.006Z,9.55
2022-12-05T17:50:50.460Z,10.27
2022-12-05T17:53:20.644Z,10.95
2022-12-05T17:55:48.972Z,9.00
2022-12-05T17:58:18.470Z,8.57
2022-12-05T18:00:47.097Z,8.73
2022-12-05T18:03:16.617Z,9.52
2022-12-05T18:05:44.668Z,10.65
2022-12-05T18:08:12.767Z,9.95
2022-12-05T18:10:42.704Z,9.73
2022-12-05T18:13:10.817Z,10.18
2022-12-05T18:15:42.950Z,9.75
2022-12-05T18:18:15.065Z,9.90
2022-12-05T18:20:42.744Z,8.65
2022-12-05T18:23:10.699Z,9.15
2022-12-05T18:25:38.428Z,10.52
2022-12-05T18:28:06.155Z,9.57
2022-12-05T18:30:33.918Z,10.10
2022-12-05T18:33:02.960Z,9.55
2022-12-05T18:35:42.823Z,9.30
2022-12-05T18:38:11.599Z,10.85
2022-12-05T18:40:39.329Z,9.57
2022-12-05T18:43:07.284Z,8.38
2022-12-05T18:45:35.001Z,8.88
2022-12-05T18:48:23.211Z,9.30
2022-12-05T18:50:52.233Z,9.80
2022-12-05T18:53:19.996Z,9.77
2022-12-05T18:58:36.335Z,9.57
2022-12-05T19:01:09.131Z,10.70
2022-12-05T19:03:39.049Z,9.23
2022-12-05T19:06:12.704Z,9.73
2022-12-05T19:08:40.400Z,8.00
2022-12-05T19:11:08.269Z,8.17
2022-12-05T19:13:36.471Z,8.18
2022-12-05T19:16:04.800Z,8.27
2022-12-05T19:18:32.501Z,8.00
2022-12-05T19:21:01.801Z,8.57
2022-12-05T19:23:29.846Z,8.00
2022-12-05T19:26:00.862Z,7.40
2022-12-05T19:28:29.024Z,7.50
2022-12-05T19:31:00.835Z,7.10
2022-12-05T19:33:32.436Z,6.70
2022-12-05T19:36:06.256Z,8.02
2022-12-05T19:38:34.919Z,7.78
2022-12-05T19:41:02.814Z,8.95
2022-12-05T19:43:30.854Z,9.25
2022-12-05T19:45:58.773Z,8.50
2022-12-05T19:48:27.365Z,7.80
2022-12-05T19:50:55.969Z,7.63
2022-12-05T19:53:26.317Z,7.68
2022-12-05T19:55:54.444Z,8.15
2022-12-05T19:58:22.140Z,7.47
2022-12-05T20:00:52.345Z,6.80
2022-12-05T20:03:20.168Z,7.13
2022-12-05T20:05:57.277Z,7.20
2022-12-05T20:08:26.456Z,7.90
2022-12-05T20:10:54.467Z,7.82
2022-12-05T20:13:45.915Z,8.43
2022-12-05T20:16:13.045Z,7.25
2022-12-05T20:18:41.530Z,7.40
2022-12-05T20:21:11.768Z,8.20
2022-12-05T20:23:41.012Z,8.25
2022-12-05T20:26:11.062Z,7.72
2022-12-05T20:28:39.931Z,7.93
2022-12-05T20:31:08.703Z,8.82
2022-12-05T20:34:31.966Z,8.57
2022-12-05T20:36:59.579Z,9.55
2022-12-05T20:39:28.088Z,10.40
2022-12-05T20:41:55.767Z,10.63
2022-12-05T20:44:23.420Z,9.97
2022-12-05T20:46:51.816Z,9.18
2022-12-05T20:49:19.449Z,8.95
2022-12-05T20:51:48.579Z,8.15
2022-12-05T20:54:18.236Z,7.82
2022-12-05T20:56:46.797Z,9.13
2022-12-05T20:59:14.924Z,8.68
2022-12-05T21:01:42.701Z,9.60
2022-12-05T21:04:12.323Z,9.80
2022-12-05T21:06:42.844Z,10.10
2022-12-05T21:09:16.179Z,9.93
2022-12-05T21:11:44.038Z,9.35
2022-12-05T21:14:11.889Z,9.23
2022-12-05T21:16:39.527Z,9.10
2022-12-05T21:19:07.181Z,8.80
2022-12-05T21:21:35.081Z,9.00
2022-12-05T21:24:05.193Z,8.50
2022-12-05T21:26:35.496Z,8.37
2022-12-05T21:29:03.848Z,8.90
2022-12-05T21:31:33.570Z,8.43
2022-12-05T21:34:03.843Z,8.20
2022-12-05T21:36:33.400Z,8.63
2022-12-05T21:39:01.531Z,8.65
2022-12-05T21:41:29.516Z,9.13
2022-12-05T21:43:58.562Z,9.85
2022-12-05T21:46:26.459Z,9.13
2022-12-05T21:48:54.252Z,9.27
2022-12-05T21:51:22.555Z,9.63
2022-12-05T21:53:50.356Z,9.13
2022-12-05T21:56:19.555Z,9.02
2022-12-05T21:58:48.114Z,10.57
2022-12-05T22:01:20.751Z,9.57
2022-12-05T22:03:48.567Z,8.82
2022-12-05T22:06:16.350Z,9.57
2022-12-05T22:08:44.417Z,10.18
2022-12-05T22:11:13.637Z,9.20
2022-12-05T22:13:42.050Z,9.68
2022-12-05T22:16:10.266Z,10.60
2022-12-05T22:18:39.544Z,9.93
2022-12-05T22:21:08.827Z,9.35
2022-12-05T22:23:36.931Z,9.23
2022-12-05T22:26:06.355Z,9.30
2022-12-05T22:28:35.210Z,9.60
2022-12-05T22:31:04.720Z,9.23
2022-12-05T22:33:32.723Z,9.15
2022-12-05T22:36:03.149Z,9.25
2022-12-05T22:38:33.188Z,8.37
2022-12-05T22:41:02.369Z,8.73
2022-12-05T22:43:31.322Z,9.25
2022-12-05T22:45:58.961Z,8.75
2022-12-05T22:48:27.749Z,8.95
2022-12-05T22:50:57.687Z,8.23
2022-12-05T22:53:26.815Z,9.05
2022-12-05T22:55:54.806Z,9.13
2022-12-05T22:58:22.437Z,9.43
2022-12-05T23:00:50.142Z,9.38
2022-12-05T23:03:17.984Z,9.50
2022-12-05T23:05:45.794Z,9.40
2022-12-05T23:08:13.931Z,9.03
2022-12-05T23:10:43.141Z,9.67
2022-12-05T23:13:10.956Z,9.50
2022-12-05T23:15:38.936Z,9.93
2022-12-05T23:18:06.858Z,9.30
2022-12-05T23:20:34.687Z,9.20
2022-12-05T23:23:02.504Z,9.98
2022-12-05T23:25:30.272Z,10.05
2022-12-05T23:27:59.473Z,8.83
2022-12-05T23:30:27.344Z,9.43
2022-12-05T23:32:55.146Z,9.68
2022-12-05T23:35:22.946Z,9.90
2022-12-05T23:37:50.781Z,9.60
2022-12-05T23:40:19.258Z,9.55
2022-12-05T23:42:47.108Z,10.23
2022-12-05T23:45:16.940Z,9.65
2022-12-05T23:47:44.755Z,10.05
2022-12-05T23:50:12.524Z,11.05
2022-12-05T23:52:40.335Z,10.73
2022-12-05T23:55:08.850Z,10.32
2022-12-05T23:57:36.536Z,10.32
